Time;durP1;ratioP1;P1;durP2;ratioP2;P2;SDS_P1;SDS_P2;PMS_P1;PMS_P2;Temp;Humidity;BMP_temperature;BMP_pressure;BME280_temperature;BME280_humidity;BME280_pressure;Samples;Min_cycle;Max_cycle;Signal;HPM_P1;HPM_P2
2022/10/19 00:03:33;;;;;;;3.63;1.52;;;;;;;6.51;95.96;100186.84;10458700;28;20033;-81
2022/10/19 00:08:35;;;;;;;1.92;1.67;;;;;;;6.42;95.99;100183.00;10447719;28;20052;-81
2022/10/19 00:13:38;;;;;;;3.03;1.90;;;;;;;6.35;95.76;100185.13;10451972;28;20487;-81
2022/10/19 00:18:44;;;;;;;3.13;2.05;;;;;;;6.33;95.94;100188.13;10453576;28;20055;-81
2022/10/19 00:23:47;;;;;;;3.15;1.60;;;;;;;6.35;95.66;100185.94;10480714;28;20037;-82
2022/10/19 00:28:52;;;;;;;3.90;1.80;;;;;;;6.38;96.29;100189.22;10448187;28;20058;-81
2022/10/19 00:33:56;;;;;;;3.53;2.10;;;;;;;6.28;96.21;100190.81;10459404;28;20041;-81
2022/10/19 00:38:58;;;;;;;3.30;2.65;;;;;;;6.35;95.61;100196.84;10431299;28;20048;-81
2022/10/19 00:44:05;;;;;;;5.65;3.38;;;;;;;6.38;95.65;100189.22;10437249;28;20041;-81
2022/10/19 00:49:20;;;;;;;4.97;3.60;;;;;;;6.45;95.46;100196.09;10453584;28;20053;-82
2022/10/19 00:54:24;;;;;;;5.45;3.90;;;;;;;6.31;95.21;100198.47;10446096;28;20049;-82
2022/10/19 00:59:27;;;;;;;4.30;3.20;;;;;;;6.21;95.24;100200.31;10452781;28;20037;-82
2022/10/19 01:04:32;;;;;;;4.07;2.20;;;;;;;6.18;95.55;100206.28;10408928;28;20053;-82
2022/10/19 01:09:34;;;;;;;2.92;1.75;;;;;;;6.16;95.90;100198.38;10423960;28;20546;-81
2022/10/19 01:15:07;;;;;;;2.88;1.98;;;;;;;6.08;96.22;100198.06;10426809;28;20049;-81
2022/10/19 01:20:49;;;;;;;2.10;1.20;;;;;;;6.09;95.68;100199.69;10447808;28;20046;-81
2022/10/19 01:26:21;;;;;;;1.10;1.00;;;;;;;5.90;95.82;100199.25;10452186;28;20487;-81
2022/10/19 01:31:34;;;;;;;2.42;1.23;;;;;;;5.97;95.35;100197.16;10452330;28;20056;-82
2022/10/19 01:36:59;;;;;;;1.48;1.10;;;;;;;6.04;95.10;100205.91;10460913;28;20041;-82
2022/10/19 01:42:10;;;;;;;1.20;1.02;;;;;;;6.03;94.78;100205.09;10440399;28;20056;-81
2022/10/19 01:47:39;;;;;;;1.10;1.00;;;;;;;5.98;95.31;100201.53;10439359;28;20522;-81
2022/10/19 01:52:41;;;;;;;0.70;0.70;;;;;;;5.85;94.07;100199.22;10441934;28;20053;-80
2022/10/19 01:57:50;;;;;;;1.20;0.73;;;;;;;5.85;94.19;100201.94;10444189;28;20064;-82
2022/10/19 02:02:53;;;;;;;1.60;0.70;;;;;;;5.89;94.76;100198.41;10440731;28;20046;-82
2022/10/19 02:07:59;;;;;;;1.65;0.55;;;;;;;5.90;94.20;100204.72;10441298;28;20535;-81
2022/10/19 02:13:01;;;;;;;0.43;0.43;;;;;;;5.78;94.33;100207.59;10440648;28;20515;-80
2022/10/19 02:18:05;;;;;;;1.08;0.60;;;;;;;5.80;93.68;100212.78;10441456;28;20037;-81
2022/10/19 02:23:08;;;;;;;0.55;0.45;;;;;;;5.72;93.69;100211.34;10441563;28;20037;-81
2022/10/19 02:28:11;;;;;;;0.50;0.50;;;;;;;5.77;93.76;100205.16;10443822;28;20054;-82
2022/10/19 02:33:13;;;;;;;0.90;0.63;;;;;;;5.71;92.98;100213.25;10448644;28;20056;-82
2022/10/19 02:38:19;;;;;;;0.30;0.30;;;;;;;5.67;92.91;100203.16;10461329;28;20037;-81
2022/10/19 02:43:23;;;;;;;1.02;0.60;;;;;;;5.57;92.53;100197.63;10456391;28;20063;-81
2022/10/19 02:48:28;;;;;;;0.50;0.50;;;;;;;5.60;93.04;100206.09;10439242;28;20045;-81
2022/10/19 02:53:30;;;;;;;0.60;0.60;;;;;;;5.48;92.52;100204.63;10450332;28;20499;-81
2022/10/19 02:58:32;;;;;;;1.15;0.43;;;;;;;5.57;93.18;100214.78;10453703;28;20033;-81
2022/10/19 03:03:35;;;;;;;0.30;0.30;;;;;;;5.53;92.88;100207.38;10446816;28;20416;-80
2022/10/19 03:08:37;;;;;;;0.63;0.50;;;;;;;5.35;92.45;100203.94;10437962;28;20037;-81
2022/10/19 03:13:40;;;;;;;0.40;0.40;;;;;;;5.37;92.03;100212.66;10442328;28;20528;-80
2022/10/19 03:18:42;;;;;;;1.38;0.63;;;;;;;5.33;92.12;100210.72;10445828;28;20407;-81
2022/10/19 03:23:45;;;;;;;0.73;0.70;;;;;;;5.33;92.39;100216.97;10448132;28;20050;-81
2022/10/19 03:28:47;;;;;;;0.50;0.50;;;;;;;5.36;92.04;100212.94;10448906;28;20045;-82
2022/10/19 03:33:49;;;;;;;3.30;0.68;;;;;;;5.31;91.83;100221.03;10449301;28;20037;-82
2022/10/19 03:38:53;;;;;;;0.50;0.50;;;;;;;5.23;91.81;100221.53;10449090;28;20404;-82
2022/10/19 03:43:56;;;;;;;0.40;0.30;;;;;;;5.21;92.15;100223.69;10442261;28;20049;-82
2022/10/19 03:48:58;;;;;;;1.10;0.60;;;;;;;5.15;91.72;100229.03;10450311;28;20401;-82
2022/10/19 03:54:03;;;;;;;0.45;0.45;;;;;;;5.14;91.67;100227.41;10451737;28;20033;-84
2022/10/19 03:59:06;;;;;;;1.25;0.60;;;;;;;5.19;91.46;100233.97;10472701;28;20052;-82
2022/10/19 04:04:11;;;;;;;1.33;0.50;;;;;;;5.14;91.65;100241.00;10452321;28;20037;-82
2022/10/19 04:09:16;;;;;;;1.13;0.70;;;;;;;5.10;91.14;100247.22;10462511;28;20519;-82
2022/10/19 04:14:19;;;;;;;1.05;0.47;;;;;;;5.05;91.50;100247.16;10456638;28;20520;-83
2022/10/19 04:19:22;;;;;;;0.75;0.68;;;;;;;5.11;92.25;100246.94;10464702;28;20068;-84
2022/10/19 04:24:24;;;;;;;0.50;0.40;;;;;;;5.03;91.89;100257.44;10469331;28;20411;-84
2022/10/19 04:29:26;;;;;;;0.75;0.30;;;;;;;5.03;92.62;100261.00;10470126;28;20042;-83
2022/10/19 04:34:28;;;;;;;0.17;0.17;;;;;;;4.90;92.04;100261.38;10465277;28;20045;-83
2022/10/19 04:39:31;;;;;;;0.38;0.35;;;;;;;4.81;92.25;100262.88;10445231;28;20033;-83
2022/10/19 04:44:33;;;;;;;1.30;0.30;;;;;;;4.76;92.93;100273.72;10457054;28;20041;-83
2022/10/19 04:49:35;;;;;;;0.40;0.40;;;;;;;4.76;92.98;100271.81;10457957;28;20056;-83
2022/10/19 04:54:37;;;;;;;0.55;0.55;;;;;;;4.78;93.74;100277.81;10451560;28;20038;-82
2022/10/19 04:59:39;;;;;;;0.90;0.30;;;;;;;4.86;94.36;100273.84;10447720;28;20048;-84
2022/10/19 05:04:42;;;;;;;0.70;0.70;;;;;;;4.87;94.53;100283.66;10446464;28;20045;-84
2022/10/19 05:09:44;;;;;;;0.30;0.30;;;;;;;4.82;94.76;100289.81;10444193;28;20057;-84
2022/10/19 05:14:46;;;;;;;2.65;0.65;;;;;;;4.72;94.23;100291.59;10446021;28;20419;-84
2022/10/19 05:19:49;;;;;;;0.47;0.38;;;;;;;4.67;94.38;100292.31;10445302;28;20049;-84
2022/10/19 05:24:51;;;;;;;2.05;0.38;;;;;;;4.63;94.46;100303.97;10404981;28;20038;-84
2022/10/19 05:29:53;;;;;;;0.43;0.30;;;;;;;4.63;93.74;100298.53;10405840;28;20049;-84
2022/10/19 05:34:55;;;;;;;0.40;0.40;;;;;;;4.56;93.14;100304.16;10404152;28;20049;-84
2022/10/19 05:39:58;;;;;;;0.68;0.57;;;;;;;4.50;92.82;100305.94;10403662;28;20507;-83
2022/10/19 05:45:00;;;;;;;0.50;0.50;;;;;;;4.49;92.28;100320.59;10402826;28;20416;-83
2022/10/19 05:50:03;;;;;;;0.43;0.30;;;;;;;4.48;92.97;100318.97;10403784;28;20149;-83
2022/10/19 05:55:06;;;;;;;0.30;0.30;;;;;;;4.46;91.91;100326.53;10403541;28;20642;-85
2022/10/19 06:00:09;;;;;;;0.50;0.40;;;;;;;4.42;91.87;100328.13;10408464;28;20048;-83
2022/10/19 06:05:14;;;;;;;0.52;0.52;;;;;;;4.44;91.96;100325.97;10444821;28;20041;-83
2022/10/19 06:10:16;;;;;;;0.20;0.20;;;;;;;4.45;91.81;100333.03;10445184;28;20099;-83
2022/10/19 06:15:18;;;;;;;0.45;0.45;;;;;;;4.48;92.12;100339.88;10443637;28;20041;-83
2022/10/19 06:20:20;;;;;;;0.45;0.45;;;;;;;4.53;91.38;100348.94;10444556;28;20041;-83
2022/10/19 06:25:22;;;;;;;0.82;0.60;;;;;;;4.56;91.29;100353.06;10445139;28;20045;-84
2022/10/19 06:30:25;;;;;;;0.63;0.30;;;;;;;4.58;90.88;100355.53;10445788;28;20527;-83
2022/10/19 06:35:27;;;;;;;0.40;0.40;;;;;;;4.47;90.67;100366.22;10444081;28;20436;-84
2022/10/19 06:40:29;;;;;;;1.52;0.40;;;;;;;4.43;90.78;100386.00;10441343;28;20543;-83
2022/10/19 06:45:31;;;;;;;0.77;0.70;;;;;;;4.44;91.09;100363.19;10442557;28;20056;-83
2022/10/19 06:50:34;;;;;;;0.47;0.47;;;;;;;4.44;90.81;100383.03;10443091;28;20068;-84
2022/10/19 06:55:36;;;;;;;1.08;0.60;;;;;;;4.34;90.76;100392.88;10447148;28;20042;-83
2022/10/19 07:00:38;;;;;;;0.40;0.40;;;;;;;4.36;90.45;100386.16;10451369;28;20056;-83
2022/10/19 07:05:40;;;;;;;2.30;0.60;;;;;;;4.36;90.06;100386.16;10451622;28;20037;-83
2022/10/19 07:10:42;;;;;;;1.27;0.60;;;;;;;4.32;90.19;100406.72;10450856;28;20046;-83
2022/10/19 07:15:45;;;;;;;0.60;0.50;;;;;;;4.36;89.99;100410.63;10451847;28;20068;-83
2022/10/19 07:20:58;;;;;;;0.60;0.60;;;;;;;4.36;90.56;100432.34;10450327;28;20068;-84
2022/10/19 07:26:11;;;;;;;1.75;0.70;;;;;;;4.36;89.73;100426.91;10450285;28;20037;-84
2022/10/19 07:31:16;;;;;;;0.57;0.55;;;;;;;4.39;89.91;100437.28;10450656;28;20061;-84
2022/10/19 07:36:19;;;;;;;2.50;0.60;;;;;;;4.37;89.79;100446.75;10450314;28;20041;-84
2022/10/19 07:41:23;;;;;;;0.65;0.60;;;;;;;4.34;89.40;100448.06;10451194;28;20428;-84
2022/10/19 07:46:28;;;;;;;0.95;0.63;;;;;;;4.29;89.51;100458.81;10432615;28;20499;-84
2022/10/19 07:51:30;;;;;;;1.05;0.77;;;;;;;4.40;89.48;100468.81;10450585;28;20048;-85
2022/10/19 07:56:34;;;;;;;0.88;0.65;;;;;;;4.40;89.85;100474.25;10450834;28;20037;-84
2022/10/19 08:01:40;;;;;;;1.92;0.60;;;;;;;4.35;89.11;100486.91;10440550;28;20551;-84
2022/10/19 08:06:42;;;;;;;0.45;0.43;;;;;;;4.40;89.05;100490.53;10448705;28;20403;-84
2022/10/19 08:11:44;;;;;;;1.30;0.80;;;;;;;4.44;88.43;100488.16;10447219;28;20037;-84
2022/10/19 08:16:46;;;;;;;1.10;0.88;;;;;;;4.49;88.48;100504.53;10448095;28;20432;-85
2022/10/19 08:21:49;;;;;;;1.27;0.60;;;;;;;4.51;88.08;100492.38;10444296;28;20045;-85
2022/10/19 08:26:51;;;;;;;1.52;0.70;;;;;;;4.57;86.88;100509.59;10448092;28;20423;-85
2022/10/19 08:31:54;;;;;;;0.40;0.38;;;;;;;4.72;87.18;100519.91;10449312;28;20058;-84
2022/10/19 08:36:56;;;;;;;0.57;0.55;;;;;;;4.69;86.50;100534.81;10448978;28;20033;-84
2022/10/19 08:42:04;;;;;;;2.42;0.80;;;;;;;4.75;86.25;100530.28;10448678;28;20056;-84
2022/10/19 08:47:30;;;;;;;1.58;0.68;;;;;;;4.77;86.57;100536.31;10447135;28;20037;-84
2022/10/19 08:52:34;;;;;;;1.27;0.70;;;;;;;4.67;86.94;100546.97;10430237;28;20535;-84
2022/10/19 08:58:04;;;;;;;1.40;0.70;;;;;;;4.72;86.09;100541.66;10428799;28;20045;-84
2022/10/19 09:03:46;;;;;;;1.55;0.98;;;;;;;4.76;85.58;100570.00;10431646;28;20049;-84
2022/10/19 09:08:53;;;;;;;0.95;0.60;;;;;;;4.87;84.42;100555.53;10446790;28;20512;-84
2022/10/19 09:14:04;;;;;;;0.73;0.50;;;;;;;4.94;84.21;100567.03;10448298;28;20056;-86
2022/10/19 09:19:28;;;;;;;0.73;0.60;;;;;;;4.95;83.45;100573.31;10441709;28;20037;-89
2022/10/19 09:24:41;;;;;;;1.42;0.55;;;;;;;4.97;81.91;100584.75;10445664;28;20048;-86
2022/10/19 09:29:49;;;;;;;1.63;0.60;;;;;;;4.92;80.62;100580.06;10448306;28;20060;-85
2022/10/19 09:34:59;;;;;;;1.38;0.60;;;;;;;4.93;79.97;100602.66;10429192;28;20108;-88
2022/10/19 09:40:02;;;;;;;0.50;0.50;;;;;;;4.91;79.18;100599.34;10445415;28;20041;-87
2022/10/19 09:45:19;;;;;;;0.15;0.15;;;;;;;4.80;78.67;100609.19;10447280;28;20455;-89
2022/10/19 09:50:23;;;;;;;0.60;0.43;;;;;;;4.77;79.36;100621.38;10428846;28;20049;-90
2022/10/19 09:55:35;;;;;;;0.30;0.30;;;;;;;4.89;79.26;100634.94;10444617;28;20041;-89
2022/10/19 10:00:44;;;;;;;2.75;0.45;;;;;;;4.90;79.52;100657.50;10445157;28;20033;-90
2022/10/19 10:05:46;;;;;;;1.50;0.40;;;;;;;4.95;78.95;100654.88;10445170;28;20477;-90
2022/10/19 10:10:57;;;;;;;1.23;0.70;;;;;;;4.93;77.56;100659.75;10426604;28;20412;-89
2022/10/19 10:16:00;;;;;;;0.43;0.43;;;;;;;4.88;77.04;100668.63;10418323;28;20069;-85
2022/10/19 10:21:11;;;;;;;0.17;0.17;;;;;;;4.88;76.24;100676.78;10437478;28;20037;-86
2022/10/19 10:26:18;;;;;;;4.00;0.35;;;;;;;4.81;74.79;100676.09;10443707;28;20424;-90
2022/10/19 10:31:26;;;;;;;1.17;0.32;;;;;;;4.66;74.14;100694.81;10444754;28;20076;-90
2022/10/19 10:36:29;;;;;;;1.27;0.55;;;;;;;4.52;75.29;100686.13;10447223;28;20045;-93
2022/10/19 10:41:37;;;;;;;3.20;0.60;;;;;;;4.52;76.16;100695.09;10445744;28;20047;-90
2022/10/19 10:46:56;;;;;;;1.80;0.70;;;;;;;4.71;76.50;100698.47;10445189;28;20050;-91
2022/10/19 10:52:06;;;;;;;0.47;0.40;;;;;;;4.79;73.91;100708.13;10445716;28;20064;-89
2022/10/19 10:57:18;;;;;;;0.75;0.10;;;;;;;4.74;73.68;100702.59;10445267;28;20061;-92
2022/10/19 11:02:26;;;;;;;0.52;0.40;;;;;;;4.61;74.22;100719.19;10445236;28;20132;-92
2022/10/19 11:07:31;;;;;;;1.58;0.70;;;;;;;4.59;74.68;100711.28;10445310;28;20041;-94
2022/10/19 11:12:38;;;;;;;0.65;0.45;;;;;;;4.72;75.15;100715.63;10425080;28;20049;-88
2022/10/19 11:18:05;;;;;;;1.27;0.32;;;;;;;4.74;75.81;100743.38;10444346;28;20404;-93
2022/10/19 11:23:39;;;;;;;1.60;0.40;;;;;;;4.67;76.21;100740.78;10432626;28;20045;-83
2022/10/19 11:28:54;;;;;;;0.57;0.43;;;;;;;4.67;76.36;100751.66;10443142;28;20515;-90
2022/10/19 11:34:35;;;;;;;1.05;0.40;;;;;;;4.71;74.72;100752.03;10450955;28;20037;-87
2022/10/19 11:39:55;;;;;;;0.38;0.30;;;;;;;4.67;74.27;100767.13;10454958;28;20053;-83
2022/10/19 11:45:03;;;;;;;0.50;0.43;;;;;;;4.59;73.90;100771.06;10428783;28;20038;-78
2022/10/19 11:50:29;;;;;;;0.50;0.30;;;;;;;4.49;74.29;100777.06;10448977;28;20041;-90
2022/10/19 11:55:47;;;;;;;0.47;0.38;;;;;;;4.45;74.12;100783.22;10427864;28;20147;-86
2022/10/19 12:01:03;;;;;;;0.50;0.43;;;;;;;4.48;74.83;100797.16;10447751;28;20119;-79
2022/10/19 12:06:23;;;;;;;0.45;0.40;;;;;;;4.41;73.49;100796.47;10441091;28;20042;-77
2022/10/19 12:12:02;;;;;;;0.30;0.30;;;;;;;4.34;73.86;100803.06;10441126;28;20045;-75
2022/10/19 12:17:09;;;;;;;0.40;0.40;;;;;;;4.36;73.75;100807.22;10439430;28;20068;-76
2022/10/19 12:22:15;;;;;;;1.15;0.50;;;;;;;4.22;73.25;100814.78;10426272;28;20034;-75
2022/10/19 12:27:26;;;;;;;0.55;0.40;;;;;;;4.16;72.43;100826.56;10444353;28;20068;-75
2022/10/19 12:32:32;;;;;;;1.63;0.63;;;;;;;4.11;72.89;100842.75;10425457;28;20041;-77
2022/10/19 12:37:56;;;;;;;0.57;0.57;;;;;;;3.97;72.50;100829.59;10459709;28;20509;-89
2022/10/19 12:43:09;;;;;;;0.68;0.60;;;;;;;4.06;73.11;100836.34;10444137;28;20235;-91
2022/10/19 12:48:19;;;;;;;1.00;0.57;;;;;;;4.08;73.92;100826.09;10443152;28;20049;-91
2022/10/19 12:53:26;;;;;;;2.92;0.52;;;;;;;3.95;73.83;100824.41;10451672;28;20051;-90
2022/10/19 12:58:35;;;;;;;1.45;0.70;;;;;;;3.80;74.26;100834.88;10443214;28;20046;-89
2022/10/19 13:03:40;;;;;;;2.28;0.82;;;;;;;3.86;74.08;100833.97;10446326;28;20060;-89
2022/10/19 13:08:55;;;;;;;1.65;0.70;;;;;;;4.02;74.36;100851.47;10450390;28;20408;-89
2022/10/19 13:14:05;;;;;;;1.17;0.70;;;;;;;4.15;73.95;100862.09;10447054;28;20052;-92
2022/10/19 13:19:13;;;;;;;2.00;0.70;;;;;;;4.14;73.23;100861.28;10448205;28;20477;-90
2022/10/19 13:24:24;;;;;;;0.95;0.80;;;;;;;4.16;73.40;100861.03;10446090;28;20057;-89
2022/10/19 13:29:38;;;;;;;0.63;0.63;;;;;;;4.00;73.03;100867.16;10446490;28;20048;-89
2022/10/19 13:34:40;;;;;;;1.25;0.80;;;;;;;3.75;74.03;100872.75;10445120;28;20052;-89
2022/10/19 13:39:42;;;;;;;1.23;0.93;;;;;;;3.67;74.06;100876.63;10443265;28;20041;-87
2022/10/19 13:44:46;;;;;;;1.55;0.90;;;;;;;3.66;74.22;100871.41;10442299;28;20041;-88
2022/10/19 13:50:10;;;;;;;1.63;1.10;;;;;;;3.55;74.08;100881.16;10443946;28;20037;-87
2022/10/19 13:55:18;;;;;;;1.05;0.90;;;;;;;3.63;74.77;100888.97;10448439;28;20041;-90
2022/10/19 14:00:24;;;;;;;1.23;0.90;;;;;;;3.72;74.75;100886.78;10445097;28;20041;-92
2022/10/19 14:05:45;;;;;;;3.47;1.20;;;;;;;3.73;74.67;100894.69;10443778;28;20037;-89
2022/10/19 14:11:01;;;;;;;1.30;0.80;;;;;;;3.81;74.14;100899.78;10422880;28;20041;-86
2022/10/19 14:16:03;;;;;;;2.30;0.80;;;;;;;3.83;73.23;100897.69;10448800;28;20056;-94
2022/10/19 14:21:08;;;;;;;1.40;0.80;;;;;;;3.74;73.54;100899.06;10451050;28;20053;-94
2022/10/19 14:26:15;;;;;;;1.08;0.82;;;;;;;3.80;73.79;100898.13;10432289;28;20054;-94
2022/10/19 14:31:22;;;;;;;1.38;0.93;;;;;;;3.94;72.79;100915.06;10426803;28;20045;-87
2022/10/19 14:36:29;;;;;;;1.75;1.17;;;;;;;3.78;73.04;100916.53;10480732;28;20168;-94
2022/10/19 14:41:35;;;;;;;1.13;0.80;;;;;;;3.89;72.38;100917.66;10459788;28;20047;-96
2022/10/19 14:46:38;;;;;;;1.65;1.00;;;;;;;3.98;72.30;100926.28;10440929;28;20049;-94
2022/10/19 14:51:48;;;;;;;1.95;0.80;;;;;;;3.99;72.54;100930.66;10475136;28;20148;-95
2022/10/19 14:57:07;;;;;;;1.77;0.90;;;;;;;3.85;73.09;100930.84;10477240;28;20060;-94
2022/10/19 15:02:31;;;;;;;1.00;0.88;;;;;;;3.94;72.95;100934.88;10451762;28;20032;-87
2022/10/19 15:07:38;;;;;;;2.38;0.80;;;;;;;3.93;72.83;100941.38;10428215;28;20532;-85
2022/10/19 15:12:41;;;;;;;1.03;0.90;;;;;;;3.85;72.33;100944.44;10421257;28;20048;-85
2022/10/19 15:17:54;;;;;;;1.42;1.25;;;;;;;3.68;72.40;100948.00;10429885;28;20834;-84
2022/10/19 15:22:57;;;;;;;3.28;0.60;;;;;;;3.48;71.83;100972.66;10450664;28;20061;-84
2022/10/19 15:28:37;;;;;;;2.72;0.70;;;;;;;3.39;71.63;100965.88;10450441;28;20057;-84
2022/10/19 15:33:47;;;;;;;1.33;0.75;;;;;;;3.39;72.97;100961.28;10429608;28;20444;-94
2022/10/19 15:39:06;;;;;;;2.15;0.80;;;;;;;3.62;72.49;100966.84;10461115;28;20047;-93
2022/10/19 15:44:29;;;;;;;1.17;0.75;;;;;;;3.70;72.31;100981.16;10454441;28;20048;-94
2022/10/19 15:49:40;;;;;;;3.17;1.40;;;;;;;3.60;72.55;100978.97;10437299;28;20042;-81
2022/10/19 15:54:46;;;;;;;3.78;1.50;;;;;;;3.46;73.11;100977.47;10440395;28;20037;-81
2022/10/19 15:59:48;;;;;;;1.95;1.23;;;;;;;3.37;72.92;100970.69;10444532;28;20046;-81
2022/10/19 16:04:52;;;;;;;0.65;0.60;;;;;;;3.21;72.67;100986.50;10443838;28;20518;-86
2022/10/19 16:09:54;;;;;;;0.65;0.65;;;;;;;3.16;73.41;100990.94;10438762;28;20057;-79
2022/10/19 16:14:56;;;;;;;0.57;0.57;;;;;;;3.21;74.14;101002.78;10445996;28;20053;-78
2022/10/19 16:19:58;;;;;;;1.88;1.10;;;;;;;3.13;74.35;101007.66;10444443;28;20411;-78
2022/10/19 16:25:01;;;;;;;5.03;0.70;;;;;;;3.01;73.81;101005.66;10444339;28;20049;-84
2022/10/19 16:30:04;;;;;;;0.60;0.60;;;;;;;3.03;74.09;101010.88;10458589;28;20045;-90
2022/10/19 16:35:07;;;;;;;0.75;0.47;;;;;;;2.95;73.61;101030.09;10450532;28;20048;-88
2022/10/19 16:40:10;;;;;;;0.40;0.40;;;;;;;2.80;74.38;101032.34;10453190;28;20045;-89
2022/10/19 16:45:12;;;;;;;0.38;0.38;;;;;;;2.99;74.57;101024.03;10461729;28;20037;-93
2022/10/19 16:50:14;;;;;;;0.60;0.60;;;;;;;3.24;74.37;101029.44;10468874;28;20392;-88
2022/10/19 16:55:16;;;;;;;0.30;0.30;;;;;;;3.55;73.85;101025.78;10446295;28;20033;-89
2022/10/19 17:00:19;;;;;;;0.82;0.45;;;;;;;3.44;72.88;101029.22;10445335;28;20033;-88
2022/10/19 17:05:21;;;;;;;1.08;0.60;;;;;;;3.58;73.64;101019.91;10445794;28;20041;-90
2022/10/19 17:10:23;;;;;;;1.08;0.50;;;;;;;4.06;73.91;101031.88;10447622;28;20325;-91
2022/10/19 17:15:26;;;;;;;0.70;0.70;;;;;;;4.36;72.08;101045.47;10454701;28;20050;-93
2022/10/19 17:20:28;;;;;;;1.15;0.73;;;;;;;4.49;71.74;101043.38;10457550;28;20028;-94
2022/10/19 17:25:30;;;;;;;1.17;0.80;;;;;;;4.41;70.69;101046.44;10473968;28;20128;-92
2022/10/19 17:30:32;;;;;;;1.48;0.35;;;;;;;3.81;71.23;101050.94;10446490;28;20055;-94
2022/10/19 17:35:35;;;;;;;0.40;0.40;;;;;;;3.46;71.84;101043.41;10454892;28;20041;-93
2022/10/19 17:40:37;;;;;;;0.50;0.30;;;;;;;3.29;73.48;101056.72;10430881;28;20053;-96
2022/10/19 17:45:41;;;;;;;0.50;0.50;;;;;;;3.25;74.60;101060.94;10463096;28;20056;-96
2022/10/19 17:50:43;;;;;;;0.93;0.65;;;;;;;3.31;74.59;101073.63;10442322;28;20108;-93
2022/10/19 17:55:45;;;;;;;1.25;0.77;;;;;;;3.19;75.72;101063.72;10440227;28;20047;-93
2022/10/19 18:00:53;;;;;;;0.50;0.50;;;;;;;3.21;75.77;101051.59;10465593;28;20411;-90
2022/10/19 18:05:59;;;;;;;0.60;0.60;;;;;;;3.32;77.42;101061.72;10466054;28;20037;-96
2022/10/19 18:11:04;;;;;;;1.00;0.90;;;;;;;3.52;76.84;101064.22;10458074;28;20045;-93
2022/10/19 18:16:15;;;;;;;1.10;0.90;;;;;;;3.56;76.76;101067.31;10462997;28;20061;-93
2022/10/19 18:21:19;;;;;;;1.42;0.95;;;;;;;3.73;76.52;101062.13;10465746;28;20038;-96
2022/10/19 18:26:24;;;;;;;2.42;1.02;;;;;;;3.84;76.05;101066.81;10445300;28;20104;-94
2022/10/19 18:31:52;;;;;;;1.25;0.90;;;;;;;3.50;76.11;101079.91;10431276;28;20401;-96
2022/10/19 18:36:54;;;;;;;;;;;;;;;3.21;77.00;101081.41;10464599;28;20053;-93
2022/10/19 18:42:01;;;;;;;0.85;0.70;;;;;;;3.15;77.95;101082.31;10474018;28;19995;-96
2022/10/19 18:47:03;;;;;;;0.57;0.57;;;;;;;3.02;78.35;101079.69;10469709;28;20038;-95
2022/10/19 18:52:06;;;;;;;0.63;0.63;;;;;;;2.99;78.91;101074.72;10473757;28;20563;-91
2022/10/19 18:57:08;;;;;;;1.58;0.82;;;;;;;3.00;79.27;101071.78;10457204;28;20037;-94
2022/10/19 19:02:10;;;;;;;1.35;0.80;;;;;;;3.09;79.57;101072.31;10456089;28;20534;-90
2022/10/19 19:07:13;;;;;;;1.08;0.88;;;;;;;3.06;79.00;101071.94;10455351;28;20514;-76
2022/10/19 19:12:15;;;;;;;1.75;0.98;;;;;;;3.24;79.01;101064.69;10439270;28;20069;-76
2022/10/19 19:17:17;;;;;;;1.88;1.20;;;;;;;3.29;79.26;101064.00;10448348;28;20068;-76
2022/10/19 19:22:20;;;;;;;2.55;1.35;;;;;;;3.23;78.69;101067.63;10447495;28;20053;-76
2022/10/19 19:27:23;;;;;;;1.90;1.35;;;;;;;3.16;78.69;101070.41;10459863;28;20056;-77
2022/10/19 19:32:26;;;;;;;2.40;1.35;;;;;;;3.06;78.73;101074.66;10448497;28;20064;-77
2022/10/19 19:37:29;;;;;;;1.58;1.42;;;;;;;3.03;79.52;101070.50;10449524;28;20052;-77
2022/10/19 19:42:31;;;;;;;2.30;1.60;;;;;;;3.25;79.49;101073.66;10451505;28;20103;-77
2022/10/19 19:47:35;;;;;;;2.55;1.67;;;;;;;3.46;79.68;101080.56;10441209;28;20231;-77
2022/10/19 19:52:38;;;;;;;1.77;1.23;;;;;;;3.38;78.46;101083.56;10447763;28;20044;-78
2022/10/19 19:57:40;;;;;;;3.15;1.52;;;;;;;3.21;78.86;101076.00;10449404;28;20530;-78
2022/10/19 20:02:42;;;;;;;2.15;1.30;;;;;;;3.16;79.44;101072.28;10445498;28;20061;-78
2022/10/19 20:07:44;;;;;;;1.95;1.23;;;;;;;3.29;79.55;101064.84;10446893;28;20046;-78
2022/10/19 20:12:47;;;;;;;2.42;1.30;;;;;;;3.23;79.25;101065.75;10459872;28;20060;-78
2022/10/19 20:17:54;;;;;;;2.65;1.23;;;;;;;3.27;79.73;101060.69;10481112;28;20045;-79
2022/10/19 20:22:57;;;;;;;1.47;1.00;;;;;;;3.50;79.80;101057.38;10447766;28;20041;-77
2022/10/19 20:27:59;;;;;;;1.83;0.90;;;;;;;3.78;79.16;101060.38;10448785;28;20049;-77
2022/10/19 20:33:03;;;;;;;2.95;0.98;;;;;;;3.55;78.18;101050.22;10447862;28;20052;-78
2022/10/19 20:38:05;;;;;;;1.63;1.13;;;;;;;3.33;78.80;101052.53;10446334;28;20045;-78
2022/10/19 20:43:07;;;;;;;1.55;0.98;;;;;;;3.28;79.14;101065.06;10451777;28;20038;-77
2022/10/19 20:48:10;;;;;;;1.10;1.00;;;;;;;3.35;78.94;101062.31;10445339;28;20057;-78
2022/10/19 20:53:12;;;;;;;2.67;0.88;;;;;;;3.47;78.84;101050.50;10461465;28;20037;-77
2022/10/19 20:58:14;;;;;;;0.93;0.80;;;;;;;3.66;78.52;101045.09;10444838;28;20038;-77
2022/10/19 21:03:16;;;;;;;2.50;1.05;;;;;;;3.93;78.45;101039.13;10441381;28;20407;-77
2022/10/19 21:08:19;;;;;;;1.33;0.90;;;;;;;4.27;77.48;101033.25;10443025;28;20045;-77
2022/10/19 21:13:21;;;;;;;1.42;0.90;;;;;;;4.30;76.28;101033.63;10458510;28;20047;-77
2022/10/19 21:18:24;;;;;;;1.55;0.95;;;;;;;4.32;75.92;101025.25;10449700;28;20067;-79
2022/10/19 21:23:26;;;;;;;0.93;0.80;;;;;;;4.43;76.20;101038.88;10466336;28;20043;-88
2022/10/19 21:28:28;;;;;;;1.55;1.00;;;;;;;4.47;75.48;101020.22;10462614;28;20048;-90
2022/10/19 21:33:31;;;;;;;1.05;0.88;;;;;;;4.50;75.97;101022.47;10428137;28;20033;-85
2022/10/19 21:38:33;;;;;;;1.10;1.00;;;;;;;4.53;75.56;101027.47;10445582;28;20408;-83
2022/10/19 21:43:35;;;;;;;1.00;0.82;;;;;;;4.45;76.13;101025.88;10423688;28;20072;-84
2022/10/19 21:48:37;;;;;;;1.20;0.75;;;;;;;4.31;75.82;101034.44;10443569;28;20420;-90
2022/10/19 21:53:40;;;;;;;1.13;0.70;;;;;;;4.18;75.03;101030.88;10443743;28;20052;-84
2022/10/19 21:58:51;;;;;;;1.85;0.60;;;;;;;4.06;74.58;101034.59;10450740;28;20411;-83
2022/10/19 22:04:00;;;;;;;0.70;0.60;;;;;;;4.26;75.71;101037.88;10425287;28;20041;-86
2022/10/19 22:09:04;;;;;;;0.73;0.70;;;;;;;4.72;74.09;101042.66;10439689;28;20041;-75
2022/10/19 22:14:06;;;;;;;1.02;0.70;;;;;;;4.63;74.09;101049.47;10452296;28;20056;-77
2022/10/19 22:19:10;;;;;;;0.68;0.57;;;;;;;4.72;73.26;101042.66;10433502;28;20049;-76
2022/10/19 22:24:14;;;;;;;0.52;0.52;;;;;;;4.89;73.55;101050.97;10442607;28;20049;-77
2022/10/19 22:29:17;;;;;;;0.52;0.52;;;;;;;4.84;72.96;101050.81;10439871;28;20048;-77
2022/10/19 22:34:19;;;;;;;0.60;0.60;;;;;;;4.96;73.10;101042.69;10439003;28;20049;-77
2022/10/19 22:39:21;;;;;;;1.42;1.27;;;;;;;4.66;73.17;101053.59;10438048;28;20048;-78
2022/10/19 22:44:23;;;;;;;1.17;0.65;;;;;;;4.62;74.36;101045.09;10436433;28;20041;-78
2022/10/19 22:49:25;;;;;;;0.93;0.80;;;;;;;4.75;73.44;101042.16;10440182;28;20037;-77
2022/10/19 22:54:27;;;;;;;2.17;0.70;;;;;;;4.69;74.37;101039.56;10443597;28;20211;-78
2022/10/19 22:59:29;;;;;;;0.80;0.75;;;;;;;4.50;73.66;101041.50;10441530;28;20041;-78
2022/10/19 23:04:32;;;;;;;1.23;0.70;;;;;;;4.52;75.01;101037.50;10429400;28;20424;-78
2022/10/19 23:09:34;;;;;;;0.60;0.60;;;;;;;4.72;74.98;101044.53;10435722;28;20515;-78
2022/10/19 23:14:36;;;;;;;1.15;0.70;;;;;;;4.66;74.57;101045.44;10440243;28;20041;-78
2022/10/19 23:19:38;;;;;;;1.83;1.20;;;;;;;5.01;74.51;101032.75;10440985;28;20427;-78
2022/10/19 23:24:40;;;;;;;1.58;1.08;;;;;;;4.59;74.49;101023.81;10439479;28;20512;-78
2022/10/19 23:29:43;;;;;;;1.33;0.85;;;;;;;4.76;74.33;101016.63;10415311;28;20056;-77
2022/10/19 23:34:45;;;;;;;0.68;0.68;;;;;;;4.89;73.45;101025.66;10433818;28;20060;-78
2022/10/19 23:39:47;;;;;;;1.10;0.70;;;;;;;4.61;75.41;101021.69;10445318;28;20096;-78
2022/10/19 23:44:49;;;;;;;0.70;0.70;;;;;;;5.04;74.15;101015.97;10445210;28;20037;-77